createdAt,value
2019-02-14T00:01:27.439Z,26.20
2019-02-14T00:03:55.777Z,16.50
2019-02-14T00:06:24.117Z,16.33
2019-02-14T00:08:52.471Z,17.10
2019-02-14T00:11:20.838Z,24.73
2019-02-14T00:13:49.192Z,14.33
2019-02-14T00:16:17.540Z,18.17
2019-02-14T00:18:45.897Z,19.37
2019-02-14T00:21:14.226Z,22.50
2019-02-14T00:23:42.589Z,15.00
2019-02-14T00:26:11.373Z,18.77
2019-02-14T00:28:39.701Z,18.90
2019-02-14T00:31:08.057Z,15.20
2019-02-14T00:33:36.430Z,17.75
2019-02-14T00:36:04.761Z,14.77
2019-02-14T00:38:33.082Z,18.40
2019-02-14T00:41:01.437Z,16.20
2019-02-14T00:43:29.798Z,13.67
2019-02-14T00:45:58.160Z,16.73
2019-02-14T00:48:26.496Z,15.17
2019-02-14T00:50:54.850Z,13.60
2019-02-14T00:53:23.179Z,17.30
2019-02-14T00:55:51.531Z,22.20
2019-02-14T00:58:19.867Z,17.33
2019-02-14T01:00:48.203Z,19.80
2019-02-14T01:03:16.844Z,15.85
2019-02-14T01:05:45.156Z,17.03
2019-02-14T01:08:13.894Z,18.33
2019-02-14T01:10:42.224Z,17.63
2019-02-14T01:13:11.246Z,16.50
2019-02-14T01:15:39.699Z,11.87
2019-02-14T01:18:08.072Z,14.63
2019-02-14T01:20:36.391Z,16.30
2019-02-14T01:23:04.785Z,14.53
2019-02-14T01:25:33.100Z,19.98
2019-02-14T01:28:01.504Z,15.20
2019-02-14T01:30:29.845Z,15.80
2019-02-14T01:32:58.201Z,12.60
2019-02-14T01:35:26.573Z,18.00
2019-02-14T01:37:54.932Z,15.15
2019-02-14T01:40:23.270Z,19.23
2019-02-14T01:42:51.729Z,16.87
2019-02-14T01:45:20.432Z,17.27
2019-02-14T01:47:48.779Z,20.20
2019-02-14T01:50:17.158Z,16.43
2019-02-14T01:52:45.518Z,17.97
2019-02-14T01:55:14.500Z,20.95
2019-02-14T01:57:42.840Z,19.20
2019-02-14T02:00:13.900Z,17.70
2019-02-14T02:02:42.237Z,17.17
2019-02-14T02:05:11.106Z,24.30
2019-02-14T02:07:39.506Z,16.07
2019-02-14T02:10:11.299Z,18.20
2019-02-14T02:12:39.725Z,16.65
2019-02-14T02:15:11.295Z,16.87
2019-02-14T02:17:39.619Z,16.37
2019-02-14T02:20:09.502Z,12.73
2019-02-14T02:22:37.824Z,22.47
2019-02-14T02:25:09.224Z,14.23
2019-02-14T02:27:37.666Z,26.00
2019-02-14T02:30:10.546Z,14.93
2019-02-14T02:32:38.859Z,20.17
2019-02-14T02:35:07.913Z,15.33
2019-02-14T02:37:36.260Z,14.53
2019-02-14T02:40:06.224Z,12.00
2019-02-14T02:42:34.606Z,16.77
2019-02-14T02:45:03.034Z,17.47
2019-02-14T02:47:31.362Z,14.80
2019-02-14T02:49:59.747Z,13.03
2019-02-14T02:52:28.066Z,16.63
2019-02-14T02:54:56.415Z,13.23
2019-02-14T02:57:24.758Z,13.60
2019-02-14T02:59:53.179Z,13.57
2019-02-14T03:02:21.518Z,15.60
2019-02-14T03:04:49.936Z,17.33
2019-02-14T03:07:18.296Z,17.43
2019-02-14T03:09:46.650Z,17.98
2019-02-14T03:12:14.984Z,15.30
2019-02-14T03:14:43.343Z,17.30
2019-02-14T03:17:11.940Z,14.60
2019-02-14T03:19:40.322Z,19.30
2019-02-14T03:22:08.678Z,18.73
2019-02-14T03:24:37.010Z,14.43
2019-02-14T03:27:05.456Z,14.13
2019-02-14T03:29:33.802Z,17.00
2019-02-14T03:32:02.170Z,14.33
2019-02-14T03:34:30.476Z,12.43
2019-02-14T03:36:58.866Z,11.33
2019-02-14T03:39:27.191Z,18.25
2019-02-14T03:41:55.557Z,14.35
2019-02-14T03:44:23.894Z,16.60
2019-02-14T03:46:52.245Z,9.67
2019-02-14T03:49:20.689Z,13.50
2019-02-14T03:51:49.025Z,13.60
2019-02-14T03:54:17.365Z,11.60
2019-02-14T03:56:45.709Z,11.80
2019-02-14T03:59:14.059Z,20.40
2019-02-14T04:01:42.430Z,16.37
2019-02-14T04:04:11.235Z,18.37
2019-02-14T04:06:39.599Z,14.67
2019-02-14T04:09:08.432Z,15.23
2019-02-14T04:11:36.768Z,13.40
2019-02-14T04:14:05.154Z,15.10
2019-02-14T04:16:33.487Z,12.67
2019-02-14T04:19:01.843Z,16.77
2019-02-14T04:21:30.188Z,15.87
2019-02-14T04:23:58.572Z,23.90
2019-02-14T04:26:27.532Z,17.63
2019-02-14T04:28:55.885Z,16.80
2019-02-14T04:31:24.215Z,16.73
2019-02-14T04:33:52.586Z,13.40
2019-02-14T04:36:20.937Z,12.13
2019-02-14T04:38:49.271Z,11.20
2019-02-14T04:41:17.588Z,13.83
2019-02-14T04:43:45.951Z,14.97
2019-02-14T04:46:14.314Z,13.43
2019-02-14T04:48:42.666Z,11.77
2019-02-14T04:51:11.507Z,17.80
2019-02-14T04:53:39.873Z,15.97
2019-02-14T04:56:08.199Z,15.20
2019-02-14T04:58:36.551Z,20.80
2019-02-14T05:01:04.969Z,12.20
2019-02-14T05:03:33.315Z,11.40
2019-02-14T05:06:01.686Z,15.48
2019-02-14T05:08:30.123Z,11.30
2019-02-14T05:10:58.474Z,13.33
2019-02-14T05:13:26.843Z,11.60
2019-02-14T05:15:55.198Z,11.90
2019-02-14T05:18:23.519Z,10.50
2019-02-14T05:20:51.870Z,15.40
2019-02-14T05:23:20.229Z,10.13
2019-02-14T05:25:48.909Z,13.22
2019-02-14T05:28:17.268Z,10.00
2019-02-14T05:30:45.616Z,10.90
2019-02-14T05:33:13.973Z,9.68
2019-02-14T05:35:42.339Z,11.13
2019-02-14T05:38:11.139Z,9.83
2019-02-14T05:40:39.493Z,13.93
2019-02-14T05:43:07.907Z,12.07
2019-02-14T05:45:36.261Z,11.20
2019-02-14T05:48:04.660Z,8.65
2019-02-14T05:50:32.987Z,11.30
2019-02-14T05:53:01.301Z,10.03
2019-02-14T05:55:29.739Z,8.90
2019-02-14T05:57:58.057Z,14.43
2019-02-14T06:00:26.396Z,12.00
2019-02-14T06:02:54.726Z,9.83
2019-02-14T06:05:23.065Z,9.47
2019-02-14T06:07:51.389Z,8.33
2019-02-14T06:10:19.739Z,8.20
2019-02-14T06:12:48.064Z,13.60
2019-02-14T06:15:16.501Z,12.83
2019-02-14T06:17:44.877Z,10.13
2019-02-14T06:20:13.336Z,15.13
2019-02-14T06:22:41.674Z,13.90
2019-02-14T06:25:11.461Z,10.30
2019-02-14T06:27:39.833Z,8.43
2019-02-14T06:30:11.424Z,11.00
2019-02-14T06:32:39.816Z,12.23
2019-02-14T06:35:09.750Z,12.83
2019-02-14T06:37:38.077Z,12.00
2019-02-14T06:40:08.763Z,13.47
2019-02-14T06:42:37.077Z,12.70
2019-02-14T06:45:09.517Z,12.80
2019-02-14T06:47:37.845Z,12.00
2019-02-14T06:50:07.444Z,12.50
2019-02-14T06:52:35.803Z,11.63
2019-02-14T06:55:05.267Z,9.73
2019-02-14T06:57:33.621Z,15.30
2019-02-14T07:00:01.930Z,8.70
2019-02-14T07:02:30.282Z,12.50
2019-02-14T07:04:58.626Z,13.87
2019-02-14T07:07:26.962Z,12.47
2019-02-14T07:09:55.340Z,8.73
2019-02-14T07:12:23.686Z,14.13
2019-02-14T07:14:52.032Z,11.83
2019-02-14T07:17:20.373Z,14.00
2019-02-14T07:19:48.749Z,15.20
2019-02-14T07:22:17.100Z,11.83
2019-02-14T07:24:45.408Z,13.23
2019-02-14T07:27:13.762Z,15.05
2019-02-14T07:29:42.123Z,21.97
2019-02-14T07:32:10.505Z,15.60
2019-02-14T07:34:38.953Z,23.30
2019-02-14T07:37:07.878Z,16.87
2019-02-14T07:39:36.280Z,13.23
2019-02-14T07:42:04.707Z,16.10
2019-02-14T07:44:33.092Z,15.25
2019-02-14T07:47:02.113Z,12.63
2019-02-14T07:49:30.463Z,14.23
2019-02-14T07:51:58.833Z,17.37
2019-02-14T07:54:27.215Z,17.05
2019-02-14T07:56:55.561Z,12.67
2019-02-14T07:59:23.916Z,17.55
2019-02-14T08:01:52.350Z,14.80
2019-02-14T08:04:20.737Z,13.77
2019-02-14T08:06:49.065Z,14.63
2019-02-14T08:09:17.417Z,16.23
2019-02-14T08:11:45.820Z,21.00
2019-02-14T08:14:14.298Z,17.77
2019-02-14T08:16:42.699Z,11.70
2019-02-14T08:19:11.065Z,11.73
2019-02-14T08:21:39.404Z,15.20
2019-02-14T08:24:08.255Z,13.10
2019-02-14T08:26:36.626Z,13.40
2019-02-14T08:29:04.956Z,15.67
2019-02-14T08:31:33.325Z,12.77
2019-02-14T08:34:01.671Z,11.83
2019-02-14T08:36:30.021Z,12.50
2019-02-14T08:38:58.344Z,12.50
2019-02-14T08:41:26.695Z,13.13
2019-02-14T08:43:55.032Z,12.80
2019-02-14T08:46:23.554Z,11.47
2019-02-14T08:48:51.939Z,11.67
2019-02-14T08:51:20.242Z,19.87
2019-02-14T08:53:48.576Z,13.35
2019-02-14T08:56:16.893Z,9.40
2019-02-14T08:58:45.291Z,10.60
2019-02-14T09:01:13.635Z,14.67
2019-02-14T09:03:42.000Z,12.90
2019-02-14T09:06:10.306Z,15.27
2019-02-14T09:08:38.673Z,11.03
2019-02-14T09:11:07.288Z,15.40
2019-02-14T09:13:35.643Z,15.57
2019-02-14T09:16:04.075Z,15.23
2019-02-14T09:18:32.411Z,18.53
2019-02-14T09:21:00.729Z,18.17
2019-02-14T09:23:29.109Z,13.33
2019-02-14T09:25:58.379Z,17.50
2019-02-14T09:28:26.707Z,13.13
2019-02-14T09:30:55.087Z,17.53
2019-02-14T09:33:23.553Z,14.20
2019-02-14T09:35:51.961Z,16.50
2019-02-14T09:38:20.788Z,13.05
2019-02-14T09:40:49.110Z,16.97
2019-02-14T09:43:17.471Z,15.23
2019-02-14T09:45:45.928Z,18.17
2019-02-14T09:48:14.408Z,17.40
2019-02-14T09:50:42.797Z,19.40
2019-02-14T09:53:11.184Z,15.87
2019-02-14T09:55:39.664Z,14.40
2019-02-14T09:58:08.376Z,19.80
2019-02-14T10:00:36.676Z,12.70
2019-02-14T10:03:05.077Z,14.00
2019-02-14T10:05:33.474Z,18.13
2019-02-14T10:08:01.872Z,20.80
2019-02-14T10:10:30.217Z,22.83
2019-02-14T10:12:58.551Z,15.80
2019-02-14T10:15:26.974Z,17.57
2019-02-14T10:17:55.503Z,18.83
2019-02-14T10:20:23.887Z,16.77
2019-02-14T10:22:52.373Z,23.47
2019-02-14T10:25:20.731Z,17.25
2019-02-14T10:27:49.216Z,16.05
2019-02-14T10:30:19.703Z,19.30
2019-02-14T10:32:48.075Z,17.17
2019-02-14T10:35:16.454Z,14.67
2019-02-14T10:37:44.902Z,19.50
2019-02-14T10:40:14.213Z,16.33
2019-02-14T10:42:42.558Z,14.77
2019-02-14T10:45:15.813Z,16.20
2019-02-14T10:47:44.130Z,19.37
2019-02-14T10:50:12.624Z,23.03
2019-02-14T10:52:40.938Z,22.10
2019-02-14T10:55:11.513Z,21.23
2019-02-14T10:57:39.865Z,31.60
2019-02-14T11:00:13.563Z,23.97
2019-02-14T11:02:42.129Z,42.43
2019-02-14T11:05:11.356Z,31.12
2019-02-14T11:07:39.699Z,28.90
2019-02-14T11:10:10.594Z,21.53
2019-02-14T11:12:39.161Z,18.60
2019-02-14T11:15:10.102Z,21.50
2019-02-14T11:17:38.498Z,17.20
2019-02-14T11:20:10.025Z,16.83
2019-02-14T11:22:38.342Z,15.37
2019-02-14T11:25:10.944Z,26.23
2019-02-14T11:27:39.349Z,14.87
2019-02-14T11:30:11.345Z,20.97
2019-02-14T11:32:39.755Z,17.03
2019-02-14T11:35:10.066Z,19.20
2019-02-14T11:37:38.408Z,16.37
2019-02-14T11:40:10.038Z,18.45
2019-02-14T11:42:38.466Z,12.43
2019-02-14T11:45:12.050Z,23.67
2019-02-14T11:47:40.403Z,15.67
2019-02-14T11:50:11.274Z,28.50
2019-02-14T11:52:39.635Z,17.13
2019-02-14T11:55:09.335Z,20.47
2019-02-14T11:57:37.772Z,19.85
2019-02-14T12:00:13.434Z,20.17
2019-02-14T12:02:41.779Z,17.63
2019-02-14T12:05:10.912Z,12.60
2019-02-14T12:07:39.225Z,16.83
2019-02-14T12:10:13.456Z,20.07
2019-02-14T12:12:41.018Z,16.20
2019-02-14T12:15:11.013Z,15.83
2019-02-14T12:17:39.453Z,18.43
2019-02-14T12:20:12.574Z,15.37
2019-02-14T12:22:46.817Z,20.07
2019-02-14T12:25:17.821Z,20.50
2019-02-14T12:27:46.168Z,18.80
2019-02-14T12:30:15.247Z,16.60
2019-02-14T12:32:43.580Z,20.83
2019-02-14T12:35:12.087Z,20.82
2019-02-14T12:37:40.401Z,20.47
2019-02-14T12:40:11.450Z,19.87
2019-02-14T12:42:40.067Z,17.00
2019-02-14T12:45:20.069Z,16.90
2019-02-14T12:47:41.439Z,16.93
2019-02-14T12:50:10.872Z,15.87
2019-02-14T12:52:39.401Z,20.03
2019-02-14T12:55:08.163Z,19.40
2019-02-14T12:57:36.489Z,17.60
2019-02-14T13:00:09.314Z,17.92
2019-02-14T13:02:37.664Z,23.27
2019-02-14T13:05:08.107Z,17.23
2019-02-14T13:07:36.446Z,15.90
2019-02-14T13:10:10.726Z,20.52
2019-02-14T13:12:39.074Z,19.23
2019-02-14T13:15:11.143Z,19.45
2019-02-14T13:17:39.518Z,22.53
2019-02-14T13:20:09.260Z,15.90
2019-02-14T13:22:37.578Z,17.50
2019-02-14T13:25:09.214Z,19.37
2019-02-14T13:27:37.710Z,23.90
2019-02-14T13:30:08.249Z,19.10
2019-02-14T13:32:36.656Z,17.37
2019-02-14T13:35:05.696Z,24.90
2019-02-14T13:37:34.028Z,17.83
2019-02-14T13:40:02.486Z,27.93
2019-02-14T13:42:31.775Z,26.80
2019-02-14T13:45:00.215Z,30.00
2019-02-14T13:47:28.758Z,35.07
2019-02-14T13:49:57.119Z,30.88
2019-02-14T13:52:25.452Z,21.13
2019-02-14T13:54:53.827Z,24.17
2019-02-14T13:57:22.234Z,22.85
2019-02-14T13:59:50.653Z,26.27
2019-02-14T14:02:19.052Z,22.73
2019-02-14T14:04:47.394Z,33.73
2019-02-14T14:07:15.750Z,25.83
2019-02-14T14:09:44.138Z,23.60
2019-02-14T14:12:12.478Z,25.00
2019-02-14T14:14:40.872Z,33.27
2019-02-14T14:17:09.376Z,30.80
2019-02-14T14:19:37.749Z,32.60
2019-02-14T14:22:06.174Z,23.57
2019-02-14T14:24:34.602Z,31.83
2019-02-14T14:27:02.930Z,31.37
2019-02-14T14:29:31.300Z,21.05
2019-02-14T14:31:59.626Z,23.57
2019-02-14T14:34:28.001Z,27.75
2019-02-14T14:36:56.325Z,25.97
2019-02-14T14:39:24.686Z,28.70
2019-02-14T14:41:53.116Z,23.70
2019-02-14T14:44:23.460Z,30.73
2019-02-14T14:46:51.975Z,22.60
2019-02-14T14:49:20.306Z,24.80
2019-02-14T14:51:48.646Z,36.83
2019-02-14T14:54:17.020Z,31.47
2019-02-14T14:56:45.353Z,23.70
2019-02-14T14:59:13.775Z,29.90
2019-02-14T15:01:42.151Z,27.20
2019-02-14T15:04:10.556Z,24.20
2019-02-14T15:06:38.870Z,39.83
2019-02-14T15:09:07.450Z,19.37
2019-02-14T15:11:35.832Z,35.50
2019-02-14T15:14:04.145Z,20.75
2019-02-14T15:16:32.578Z,21.97
2019-02-14T15:19:00.914Z,20.50
2019-02-14T15:21:29.321Z,19.20
2019-02-14T15:23:57.659Z,20.57
2019-02-14T15:26:26.001Z,18.87
2019-02-14T15:28:54.349Z,25.20
2019-02-14T15:31:22.696Z,18.73
2019-02-14T15:33:51.068Z,20.07
2019-02-14T15:36:19.449Z,18.77
2019-02-14T15:38:47.755Z,18.83
2019-02-14T15:41:16.111Z,20.60
2019-02-14T15:43:44.469Z,21.00
2019-02-14T15:46:12.891Z,23.80
2019-02-14T15:48:41.199Z,19.63
2019-02-14T15:51:09.555Z,20.45
2019-02-14T15:53:37.987Z,19.53
2019-02-14T15:56:07.788Z,21.93
2019-02-14T15:58:36.312Z,22.60
2019-02-14T16:01:04.953Z,19.10
2019-02-14T16:03:33.312Z,26.40
2019-02-14T16:06:02.268Z,18.12
2019-02-14T16:08:32.222Z,19.00
2019-02-14T16:11:00.595Z,22.13
2019-02-14T16:13:29.671Z,23.43
2019-02-14T16:15:59.470Z,16.07
2019-02-14T16:18:28.289Z,16.13
2019-02-14T16:20:56.760Z,20.20
2019-02-14T16:23:25.150Z,17.37
2019-02-14T16:25:54.033Z,16.32
2019-02-14T16:28:22.579Z,17.77
2019-02-14T16:30:52.841Z,15.63
2019-02-14T16:33:23.502Z,19.87
2019-02-14T16:35:51.548Z,15.40
2019-02-14T16:38:19.927Z,15.60
2019-02-14T16:40:48.277Z,24.67
2019-02-14T16:43:16.628Z,20.57
2019-02-14T16:45:45.333Z,17.30
2019-02-14T16:48:13.687Z,21.50
2019-02-14T16:50:42.025Z,16.20
2019-02-14T16:53:10.374Z,11.77
2019-02-14T16:55:38.786Z,14.97
2019-02-14T16:58:07.484Z,19.90
2019-02-14T17:00:35.977Z,28.57
2019-02-14T17:03:04.391Z,17.37
2019-02-14T17:05:32.827Z,15.87
2019-02-14T17:08:01.190Z,17.73
2019-02-14T17:10:36.763Z,14.40
2019-02-14T17:12:59.877Z,13.70
2019-02-14T17:15:28.245Z,15.60
2019-02-14T17:17:56.575Z,13.60
2019-02-14T17:20:24.927Z,13.30
2019-02-14T17:22:53.282Z,18.30
2019-02-14T17:25:21.619Z,19.40
2019-02-14T17:27:49.969Z,18.70
2019-02-14T17:30:18.316Z,15.83
2019-02-14T17:32:46.638Z,20.17
2019-02-14T17:35:15.253Z,21.27
2019-02-14T17:37:43.602Z,15.40
2019-02-14T17:40:12.318Z,17.73
2019-02-14T17:42:40.646Z,17.37
2019-02-14T17:45:09.626Z,17.60
2019-02-14T17:47:38.037Z,17.33
2019-02-14T17:50:07.959Z,18.33
2019-02-14T17:52:36.287Z,21.10
2019-02-14T17:55:07.644Z,20.20
2019-02-14T17:57:36.037Z,18.43
2019-02-14T18:00:07.886Z,19.10
2019-02-14T18:02:36.342Z,19.90
2019-02-14T18:05:06.665Z,14.80
2019-02-14T18:07:35.147Z,17.27
2019-02-14T18:10:06.968Z,14.47
2019-02-14T18:12:35.286Z,18.87
2019-02-14T18:15:06.009Z,19.00
2019-02-14T18:17:34.370Z,16.03
2019-02-14T18:20:02.807Z,27.37
2019-02-14T18:22:31.118Z,15.83
2019-02-14T18:24:59.496Z,15.00
2019-02-14T18:27:27.893Z,15.03
2019-02-14T18:29:56.238Z,24.03
2019-02-14T18:32:24.636Z,14.60
2019-02-14T18:34:52.976Z,14.17
2019-02-14T18:37:21.290Z,21.27
2019-02-14T18:39:49.601Z,18.07
2019-02-14T18:42:18.213Z,18.87
2019-02-14T18:44:47.418Z,18.00
2019-02-14T18:47:15.984Z,15.40
2019-02-14T18:49:44.351Z,15.10
2019-02-14T18:52:12.761Z,14.47
2019-02-14T18:54:41.514Z,15.65
2019-02-14T18:57:10.316Z,21.23
2019-02-14T18:59:38.619Z,20.00
2019-02-14T19:02:07.190Z,19.63
2019-02-14T19:04:35.619Z,21.10
2019-02-14T19:07:04.328Z,19.33
2019-02-14T19:09:32.669Z,20.67
2019-02-14T19:12:01.021Z,14.40
2019-02-14T19:14:29.359Z,16.53
2019-02-14T19:16:57.707Z,22.40
2019-02-14T19:19:26.046Z,16.90
2019-02-14T19:21:54.531Z,20.03
2019-02-14T19:24:22.869Z,20.10
2019-02-14T19:26:51.380Z,21.00
2019-02-14T19:29:19.741Z,19.93
2019-02-14T19:31:48.198Z,25.00
2019-02-14T19:34:16.949Z,22.03
2019-02-14T19:37:11.013Z,27.80
2019-02-14T19:39:39.469Z,23.62
2019-02-14T19:42:07.879Z,21.67
2019-02-14T19:44:36.404Z,20.30
2019-02-14T19:47:05.011Z,19.20
2019-02-14T19:49:33.351Z,23.00
2019-02-14T19:52:01.715Z,24.57
2019-02-14T19:54:30.375Z,31.27
2019-02-14T19:56:58.815Z,27.37
2019-02-14T19:59:27.193Z,22.47
2019-02-14T20:01:55.651Z,22.10
2019-02-14T20:04:24.029Z,38.50
2019-02-14T20:06:52.369Z,22.03
2019-02-14T20:09:20.782Z,23.23
2019-02-14T20:11:49.143Z,22.20
2019-02-14T20:14:17.695Z,24.63
2019-02-14T20:16:46.047Z,19.73
2019-02-14T20:19:14.373Z,17.50
2019-02-14T20:21:42.834Z,26.07
2019-02-14T20:24:12.114Z,23.10
2019-02-14T20:26:40.486Z,30.13
2019-02-14T20:29:09.079Z,19.70
2019-02-14T20:31:37.585Z,26.37
2019-02-14T20:34:06.000Z,22.10
2019-02-14T20:36:34.453Z,24.17
2019-02-14T20:39:04.163Z,20.93
2019-02-14T20:41:33.319Z,22.20
2019-02-14T20:44:01.830Z,24.17
2019-02-14T20:46:30.315Z,26.23
2019-02-14T20:48:58.833Z,28.17
2019-02-14T20:51:37.947Z,17.33
2019-02-14T20:53:59.399Z,21.57
2019-02-14T20:56:28.055Z,21.60
2019-02-14T20:58:56.509Z,30.63
2019-02-14T21:01:25.020Z,22.07
2019-02-14T21:03:53.484Z,26.87
2019-02-14T21:06:22.723Z,30.00
2019-02-14T21:08:51.431Z,24.70
2019-02-14T21:11:20.017Z,29.67
2019-02-14T21:13:48.643Z,23.53
2019-02-14T21:16:17.143Z,23.42
2019-02-14T21:18:45.822Z,20.73
2019-02-14T21:21:14.545Z,21.77
2019-02-14T21:23:43.183Z,28.10
2019-02-14T21:26:12.215Z,20.87
2019-02-14T21:28:40.601Z,28.70
2019-02-14T21:31:09.023Z,21.23
2019-02-14T21:33:37.684Z,24.77
2019-02-14T21:36:07.286Z,23.07
2019-02-14T21:38:35.748Z,22.23
2019-02-14T21:41:04.244Z,25.17
2019-02-14T21:43:33.598Z,21.80
2019-02-14T21:46:02.226Z,21.43
2019-02-14T21:48:30.663Z,21.23
2019-02-14T21:50:59.226Z,18.37
2019-02-14T21:53:27.771Z,24.23
2019-02-14T21:55:56.269Z,26.20
2019-02-14T21:58:24.612Z,22.30
2019-02-14T22:00:53.038Z,24.93
2019-02-14T22:03:21.390Z,22.80
2019-02-14T22:05:49.869Z,21.07
2019-02-14T22:08:18.234Z,20.60
2019-02-14T22:10:46.683Z,22.53
2019-02-14T22:13:15.018Z,20.50
2019-02-14T22:15:43.371Z,22.48
2019-02-14T22:18:12.284Z,25.17
2019-02-14T22:20:40.646Z,22.87
2019-02-14T22:23:09.059Z,20.43
2019-02-14T22:25:37.420Z,23.83
2019-02-14T22:28:06.798Z,20.30
2019-02-14T22:30:35.328Z,18.30
2019-02-14T22:33:03.936Z,19.83
2019-02-14T22:35:32.282Z,19.93
2019-02-14T22:38:00.622Z,23.60
2019-02-14T22:40:28.999Z,17.43
2019-02-14T22:42:57.328Z,25.00
2019-02-14T22:45:25.753Z,27.10
2019-02-14T22:47:54.178Z,27.17
2019-02-14T22:50:22.604Z,28.83
2019-02-14T22:52:50.997Z,65.37
2019-02-14T22:55:19.298Z,33.93
2019-02-14T22:57:47.647Z,29.17
2019-02-14T23:00:23.802Z,36.90
2019-02-14T23:02:52.141Z,27.00
2019-02-14T23:05:21.369Z,30.70
2019-02-14T23:07:49.788Z,31.53
2019-02-14T23:10:18.110Z,31.02
2019-02-14T23:12:55.162Z,33.93
2019-02-14T23:15:17.158Z,31.27
2019-02-14T23:17:45.534Z,31.70
2019-02-14T23:20:14.330Z,40.48
2019-02-14T23:22:43.258Z,33.50
2019-02-14T23:25:12.249Z,35.63
2019-02-14T23:27:40.561Z,26.43
2019-02-14T23:30:12.390Z,31.03
2019-02-14T23:32:40.728Z,37.27
2019-02-14T23:35:09.387Z,23.83
2019-02-14T23:37:38.427Z,25.87
2019-02-14T23:40:07.266Z,26.10
2019-02-14T23:42:35.585Z,28.77
2019-02-14T23:45:06.305Z,32.20
2019-02-14T23:47:34.824Z,28.67
2019-02-14T23:50:04.551Z,24.65
2019-02-14T23:52:32.898Z,29.23
2019-02-14T23:55:01.252Z,25.82
2019-02-14T23:57:29.601Z,24.80
2019-02-14T23:59:57.968Z,25.73
